Time;durP1;ratioP1;P1;durP2;ratioP2;P2;SDS_P1;SDS_P2;PMS_P1;PMS_P2;Temp;Humidity;BMP_temperature;BMP_pressure;BME280_temperature;BME280_humidity;BME280_pressure;Samples;Min_cycle;Max_cycle;Signal;HPM_P1;HPM_P2
2023/04/02 00:00:22;;;;;;;4.30;3.30;;;;;;;8.37;nan;96821.72;1727303;75;24139;-70
2023/04/02 00:03:02;;;;;;;3.20;2.40;;;;;;;8.42;nan;96831.19;1727047;75;25434;-69
2023/04/02 00:05:48;;;;;;;2.10;1.60;;;;;;;8.37;nan;96824.47;1726860;75;24922;-71
2023/04/02 00:08:31;;;;;;;2.00;1.40;;;;;;;8.01;nan;96821.09;1727071;75;25017;-69
2023/04/02 00:11:02;;;;;;;1.70;1.40;;;;;;;8.03;nan;96823.34;1726975;75;25200;-71
2023/04/02 00:13:37;;;;;;;1.60;1.10;;;;;;;8.20;nan;96818.06;1727262;75;24141;-69
2023/04/02 00:16:13;;;;;;;1.10;0.90;;;;;;;8.24;nan;96818.63;1726787;75;26071;-70
2023/04/02 00:18:48;;;;;;;1.50;0.70;;;;;;;8.19;nan;96819.31;1726797;75;24987;-71
2023/04/02 00:21:23;;;;;;;0.60;0.60;;;;;;;8.16;nan;96815.56;1726767;75;24982;-70
2023/04/02 00:23:56;;;;;;;0.70;0.70;;;;;;;8.13;nan;96813.03;1726915;75;25188;-72
2023/04/02 00:26:32;;;;;;;0.50;0.50;;;;;;;8.05;nan;96816.19;1726190;75;24849;-69
2023/04/02 00:29:03;;;;;;;0.40;0.40;;;;;;;8.11;nan;96808.81;1726905;75;24272;-70
2023/04/02 00:31:39;;;;;;;0.60;0.60;;;;;;;8.01;nan;96807.47;1726800;75;24247;-71
2023/04/02 00:34:18;;;;;;;0.80;0.80;;;;;;;7.96;nan;96810.13;1727037;75;24542;-69
2023/04/02 00:36:49;;;;;;;0.70;0.60;;;;;;;7.92;nan;96815.06;1726892;75;24139;-69
2023/04/02 00:39:24;;;;;;;0.70;0.70;;;;;;;7.89;nan;96812.06;1727111;75;24616;-69
2023/04/02 00:42:03;;;;;;;0.70;0.70;;;;;;;7.83;nan;96818.66;1726834;75;24785;-70
2023/04/02 00:44:34;;;;;;;2.50;1.40;;;;;;;7.49;nan;96812.06;1727208;75;24285;-71
2023/04/02 00:47:15;;;;;;;1.10;1.00;;;;;;;7.67;nan;96823.44;1726975;75;24900;-70
2023/04/02 00:49:46;;;;;;;1.10;1.00;;;;;;;7.61;nan;96817.16;1727271;75;24942;-70
2023/04/02 00:52:20;;;;;;;0.70;0.70;;;;;;;7.71;nan;96817.03;1727505;83;24918;-71
2023/04/02 00:54:55;;;;;;;0.60;0.60;;;;;;;7.67;nan;96814.50;1726988;75;24138;-70
2023/04/02 00:57:27;;;;;;;0.90;0.60;;;;;;;7.58;nan;96809.94;1727528;75;24230;-71
2023/04/02 01:00:02;;;;;;;0.60;0.60;;;;;;;7.57;nan;96810.41;1727137;75;24306;-71
2023/04/02 01:02:37;;;;;;;0.50;0.50;;;;;;;7.50;nan;96805.38;1727509;75;25066;-70
2023/04/02 01:05:24;;;;;;;0.90;0.80;;;;;;;7.22;nan;96808.47;1726580;75;24985;-69
2023/04/02 01:08:06;;;;;;;0.80;0.80;;;;;;;7.34;nan;96806.66;1727188;75;24475;-70
2023/04/02 01:11:00;;;;;;;1.50;0.70;;;;;;;7.37;nan;96808.44;1727481;75;24348;-69
2023/04/02 01:13:39;;;;;;;0.50;0.50;;;;;;;7.37;nan;96808.44;1726680;75;24823;-70
2023/04/02 01:16:19;;;;;;;0.50;0.50;;;;;;;7.33;nan;96803.16;1726348;75;25341;-72
2023/04/02 01:19:00;;;;;;;0.50;0.50;;;;;;;7.42;nan;96807.75;1727069;75;24387;-70
2023/04/02 01:21:57;;;;;;;0.40;0.40;;;;;;;7.37;nan;96803.72;1726778;75;24078;-68
2023/04/02 01:24:36;;;;;;;0.50;0.50;;;;;;;7.36;nan;96806.91;1726882;75;24129;-69
2023/04/02 01:27:10;;;;;;;0.60;0.60;;;;;;;7.30;nan;96803.38;1726932;75;24211;-71
2023/04/02 01:29:47;;;;;;;0.40;0.40;;;;;;;7.34;nan;96814.81;1727156;75;24486;-69
2023/04/02 01:32:21;;;;;;;0.40;0.40;;;;;;;7.31;nan;96802.91;1726554;75;25264;-69
2023/04/02 01:34:53;;;;;;;0.90;0.70;;;;;;;7.24;nan;96806.78;1727087;75;24558;-70
2023/04/02 01:37:43;;;;;;;0.80;0.70;;;;;;;7.18;nan;96816.81;1726091;75;24806;-70
2023/04/02 01:40:30;;;;;;;1.00;0.90;;;;;;;7.15;nan;96814.31;1726976;75;24656;-69
2023/04/02 01:43:13;;;;;;;1.00;0.80;;;;;;;7.18;nan;96818.81;1726975;75;24223;-69
2023/04/02 01:45:45;;;;;;;0.70;0.70;;;;;;;7.22;nan;96824.81;1726809;75;24545;-70
2023/04/02 01:48:19;;;;;;;0.70;0.60;;;;;;;7.14;nan;96823.69;1727089;75;24894;-70
2023/04/02 01:50:53;;;;;;;0.90;0.90;;;;;;;7.11;nan;96830.81;1726904;83;25054;-72
2023/04/02 01:53:26;;;;;;;0.60;0.60;;;;;;;7.15;nan;96820.50;1727218;75;24147;-69
2023/04/02 01:55:59;;;;;;;0.60;0.60;;;;;;;7.16;nan;96815.78;1727390;75;25201;-70
2023/04/02 01:58:32;;;;;;;0.90;0.60;;;;;;;7.01;nan;96829.44;1727517;75;24251;-70
2023/04/02 02:01:09;;;;;;;0.50;0.50;;;;;;;7.05;nan;96821.84;1727299;75;24953;-70
2023/04/02 02:03:45;;;;;;;0.50;0.50;;;;;;;6.90;nan;96831.97;1727040;75;24908;-68
2023/04/02 02:06:17;;;;;;;0.70;0.60;;;;;;;6.98;nan;96831.13;1727487;75;24273;-70
2023/04/02 02:08:53;;;;;;;0.50;0.50;;;;;;;7.02;nan;96828.97;1727448;75;24259;-70
2023/04/02 02:11:28;;;;;;;0.40;0.40;;;;;;;6.96;nan;96830.09;1727691;75;25044;-70
2023/04/02 02:14:01;;;;;;;0.40;0.40;;;;;;;6.97;nan;96834.31;1727270;75;24816;-69
2023/04/02 02:16:41;;;;;;;0.70;0.60;;;;;;;6.95;nan;96834.81;1727547;75;24561;-69
2023/04/02 02:19:26;;;;;;;0.50;0.40;;;;;;;6.93;nan;96831.06;1727274;75;24139;-70
2023/04/02 02:21:59;;;;;;;0.60;0.60;;;;;;;6.87;nan;96841.84;1726966;83;24496;-69
2023/04/02 02:24:34;;;;;;;0.70;0.60;;;;;;;6.78;nan;96844.66;1727587;75;24947;-71
2023/04/02 02:27:43;;;;;;;0.80;0.60;;;;;;;6.77;nan;96835.75;1727178;75;24863;-70
2023/04/02 02:30:19;;;;;;;0.50;0.50;;;;;;;6.71;nan;96836.88;1727383;75;26109;-69
2023/04/02 02:33:00;;;;;;;1.10;0.80;;;;;;;6.39;nan;96840.03;1727166;75;24803;-72
2023/04/02 02:35:35;;;;;;;1.10;0.90;;;;;;;6.31;nan;96852.50;1727195;83;25006;-69
2023/04/02 02:38:39;;;;;;;1.50;0.90;;;;;;;6.35;nan;96847.66;1726972;75;24781;-72
2023/04/02 02:41:18;;;;;;;0.70;0.70;;;;;;;6.37;nan;96842.50;1727134;75;24112;-69
2023/04/02 02:43:58;;;;;;;0.90;0.70;;;;;;;6.32;nan;96848.56;1727468;75;24288;-71
2023/04/02 02:46:30;;;;;;;0.70;0.70;;;;;;;6.33;nan;96843.91;1727183;75;24362;-71
2023/04/02 02:49:05;;;;;;;1.00;0.80;;;;;;;6.26;nan;96847.72;1727842;75;24036;-74
2023/04/02 02:51:45;;;;;;;0.80;0.70;;;;;;;6.24;nan;96852.13;1727382;75;25130;-72
2023/04/02 02:54:16;;;;;;;0.90;0.80;;;;;;;6.16;nan;96841.63;1727212;75;24214;-70
2023/04/02 02:56:53;;;;;;;0.60;0.60;;;;;;;6.16;nan;96849.03;1727558;75;24188;-70
2023/04/02 02:59:25;;;;;;;0.80;0.70;;;;;;;6.12;nan;96854.63;1727204;75;24087;-70
2023/04/02 03:01:55;;;;;;;0.50;0.50;;;;;;;6.07;nan;96860.72;1727381;75;24355;-70
2023/04/02 03:04:29;;;;;;;0.80;0.70;;;;;;;6.06;nan;96863.88;1727310;75;24547;-69
2023/04/02 03:07:00;;;;;;;0.70;0.70;;;;;;;5.93;nan;96859.41;1727180;75;24229;-72
2023/04/02 03:09:41;;;;;;;0.50;0.50;;;;;;;5.85;nan;96855.56;1727356;75;25286;-68
2023/04/02 03:12:42;;;;;;;1.60;1.10;;;;;;;5.80;nan;96856.19;1727023;75;25133;-69
2023/04/02 03:15:23;;;;;;;0.80;0.80;;;;;;;5.82;nan;96872.78;1727139;75;24993;-69
2023/04/02 03:17:59;;;;;;;1.10;0.80;;;;;;;5.80;nan;96869.78;1727562;75;24189;-70
2023/04/02 03:20:39;;;;;;;1.20;0.80;;;;;;;5.71;nan;96869.84;1726847;75;24309;-70
2023/04/02 03:23:19;;;;;;;1.20;1.10;;;;;;;5.47;nan;96867.09;1727299;75;24121;-70
2023/04/02 03:25:57;;;;;;;0.70;0.70;;;;;;;5.60;nan;96873.03;1727304;75;25641;-69
2023/04/02 03:28:29;;;;;;;;;;;;;;;5.64;nan;96870.91;1726937;75;24301;-73
2023/04/02 03:31:04;;;;;;;0.60;0.60;;;;;;;5.59;nan;96879.69;1727294;75;24244;-72
2023/04/02 03:33:41;;;;;;;1.80;1.30;;;;;;;5.38;nan;96878.75;1726956;75;24152;-70
2023/04/02 03:36:22;;;;;;;1.30;1.20;;;;;;;5.46;nan;96879.94;1727524;75;24240;-73
2023/04/02 03:38:58;;;;;;;0.70;0.70;;;;;;;5.49;nan;96883.69;1727023;83;25126;-72
2023/04/02 03:41:40;;;;;;;1.60;1.20;;;;;;;5.23;nan;96886.06;1726913;75;24724;-69
2023/04/02 03:44:23;;;;;;;1.50;1.30;;;;;;;5.30;nan;96891.91;1727451;75;24125;-70
2023/04/02 03:46:58;;;;;;;1.10;1.00;;;;;;;5.36;nan;96881.16;1727126;75;25921;-70
2023/04/02 03:49:36;;;;;;;1.00;0.90;;;;;;;5.39;nan;96898.50;1727406;75;24637;-71
2023/04/02 03:52:13;;;;;;;0.60;0.60;;;;;;;5.50;nan;96896.03;1727430;75;24453;-71
2023/04/02 03:54:43;;;;;;;0.80;0.70;;;;;;;5.48;nan;96893.78;1727113;75;24616;-72
2023/04/02 03:57:31;;;;;;;0.60;0.60;;;;;;;5.38;nan;96902.44;1727533;75;24164;-70
2023/04/02 04:00:10;;;;;;;2.20;0.60;;;;;;;5.32;nan;96897.63;1726964;83;26274;-70
2023/04/02 04:02:47;;;;;;;1.40;1.00;;;;;;;5.17;nan;96902.22;1727213;75;24840;-69
2023/04/02 04:05:28;;;;;;;1.40;1.00;;;;;;;5.41;nan;96898.78;1727458;75;24178;-70
2023/04/02 04:08:06;;;;;;;0.80;0.80;;;;;;;5.46;nan;96890.78;1726876;75;24900;-70
2023/04/02 04:10:37;;;;;;;0.90;0.80;;;;;;;5.39;nan;96903.91;1726779;75;24144;-72
2023/04/02 04:13:14;;;;;;;0.70;0.70;;;;;;;5.46;nan;96896.22;1727002;75;24102;-70
2023/04/02 04:15:53;;;;;;;0.60;0.60;;;;;;;5.48;nan;96901.94;1726345;75;24651;-73
2023/04/02 04:18:33;;;;;;;0.60;0.60;;;;;;;5.47;nan;96918.69;1727314;75;24140;-71
2023/04/02 04:21:07;;;;;;;0.70;0.60;;;;;;;5.47;nan;96916.72;1726906;75;24199;-70
2023/04/02 04:23:48;;;;;;;0.60;0.60;;;;;;;5.34;nan;96927.78;1726883;75;24163;-69
2023/04/02 04:26:25;;;;;;;0.70;0.70;;;;;;;5.37;nan;96928.81;1726551;75;25760;-69
2023/04/02 04:29:04;;;;;;;0.60;0.60;;;;;;;5.46;nan;96930.72;1726647;75;25143;-69
2023/04/02 04:31:40;;;;;;;0.80;0.50;;;;;;;5.37;nan;96926.09;1726797;83;24268;-69
2023/04/02 04:34:15;;;;;;;1.10;0.70;;;;;;;5.37;nan;96941.63;1726516;75;24880;-70
2023/04/02 04:36:52;;;;;;;0.60;0.60;;;;;;;5.32;nan;96927.47;1726761;75;24287;-70
2023/04/02 04:39:33;;;;;;;0.70;0.60;;;;;;;5.36;nan;96930.00;1726581;75;24737;-69
2023/04/02 04:42:06;;;;;;;0.90;0.80;;;;;;;5.35;nan;96931.25;1726673;75;24706;-69
2023/04/02 04:44:45;;;;;;;1.20;0.60;;;;;;;5.36;nan;96948.25;1726884;75;24128;-71
2023/04/02 04:47:21;;;;;;;0.50;0.50;;;;;;;5.44;nan;96944.03;1726579;75;24126;-68
2023/04/02 04:49:55;;;;;;;0.60;0.60;;;;;;;5.46;nan;96941.59;1727173;75;24162;-70
2023/04/02 04:52:28;;;;;;;0.70;0.70;;;;;;;5.51;nan;96944.44;1726647;83;25081;-70
2023/04/02 04:55:00;;;;;;;0.60;0.60;;;;;;;5.47;nan;96938.41;1726771;75;24278;-69
2023/04/02 04:57:35;;;;;;;0.50;0.50;;;;;;;5.45;nan;96950.94;1726622;75;25911;-69
2023/04/02 05:00:15;;;;;;;0.60;0.60;;;;;;;5.52;nan;96953.34;1726343;75;24284;-68
2023/04/02 05:02:52;;;;;;;0.60;0.60;;;;;;;5.52;nan;96947.91;1726965;75;24092;-71
2023/04/02 05:05:28;;;;;;;0.90;0.60;;;;;;;5.49;nan;96941.44;1726247;75;26250;-71
2023/04/02 05:08:02;;;;;;;0.60;0.60;;;;;;;5.43;nan;96945.97;1727379;75;24271;-70
2023/04/02 05:10:44;;;;;;;1.00;0.80;;;;;;;5.46;nan;96947.00;1727032;75;26016;-69
2023/04/02 05:13:23;;;;;;;0.70;0.70;;;;;;;5.45;nan;96959.09;1726975;75;25082;-70
2023/04/02 05:16:03;;;;;;;1.00;0.90;;;;;;;5.49;nan;96952.28;1727117;75;25074;-71
2023/04/02 05:18:40;;;;;;;0.70;0.70;;;;;;;5.54;nan;96957.09;1726714;75;24983;-68
2023/04/02 05:21:19;;;;;;;0.90;0.80;;;;;;;5.56;nan;96967.50;1726699;75;24900;-69
2023/04/02 05:23:55;;;;;;;1.10;1.00;;;;;;;5.55;nan;96972.16;1727142;75;24934;-71
2023/04/02 05:26:32;;;;;;;1.10;1.00;;;;;;;5.62;nan;96970.34;1726703;75;24630;-70
2023/04/02 05:29:11;;;;;;;1.20;1.00;;;;;;;5.59;nan;96972.00;1727128;75;24519;-73
2023/04/02 05:31:47;;;;;;;1.00;0.90;;;;;;;5.68;nan;96973.94;1727177;75;25869;-70
2023/04/02 05:34:26;;;;;;;0.80;0.70;;;;;;;5.75;nan;96974.38;1727369;75;24749;-71
2023/04/02 05:36:57;;;;;;;1.10;1.00;;;;;;;5.70;nan;96969.56;1727758;75;24594;-71
2023/04/02 05:39:28;;;;;;;0.70;0.70;;;;;;;5.71;nan;96978.47;1727255;75;24553;-69
2023/04/02 05:42:07;;;;;;;1.10;1.00;;;;;;;5.76;nan;96981.28;1727517;75;24213;-69
2023/04/02 05:44:41;;;;;;;0.70;0.70;;;;;;;5.82;nan;96984.16;1727420;75;24853;-69
2023/04/02 05:47:18;;;;;;;1.00;0.80;;;;;;;5.87;nan;96983.50;1727898;75;24224;-71
2023/04/02 05:49:54;;;;;;;0.80;0.80;;;;;;;5.94;nan;96988.63;1727066;75;24823;-71
2023/04/02 05:52:29;;;;;;;0.60;0.60;;;;;;;5.97;nan;96982.28;1727201;75;24594;-68
2023/04/02 05:55:09;;;;;;;0.90;0.80;;;;;;;6.02;nan;96980.16;1727211;75;24596;-73
2023/04/02 05:57:49;;;;;;;0.60;0.60;;;;;;;6.13;nan;96986.56;1727565;75;24450;-69
2023/04/02 06:00:26;;;;;;;0.90;0.70;;;;;;;6.09;nan;96983.28;1727498;75;24176;-71
2023/04/02 06:03:00;;;;;;;;;;;;;;;6.04;nan;96980.41;1726650;75;25928;-73
2023/04/02 06:05:38;;;;;;;1.10;0.90;;;;;;;6.17;nan;96989.09;1727438;75;25025;-70
2023/04/02 06:08:13;;;;;;;0.80;0.80;;;;;;;6.33;nan;96990.69;1727306;75;24206;-71
2023/04/02 06:10:52;;;;;;;1.30;1.00;;;;;;;6.33;nan;96999.59;1726808;75;24309;-70
2023/04/02 06:13:25;;;;;;;1.40;1.00;;;;;;;6.32;nan;96995.34;1727073;83;24817;-70
2023/04/02 06:15:55;;;;;;;1.70;1.10;;;;;;;6.44;nan;96998.31;1727732;75;24294;-70
2023/04/02 06:18:27;;;;;;;1.30;1.10;;;;;;;6.51;nan;97003.38;1727420;75;24589;-69
2023/04/02 06:20:57;;;;;;;2.70;1.70;;;;;;;6.44;nan;97006.47;1727621;75;24600;-70
2023/04/02 06:23:33;;;;;;;4.70;3.40;;;;;;;6.36;nan;97004.09;1727010;75;24823;-70
2023/04/02 06:26:09;;;;;;;5.00;3.70;;;;;;;6.67;nan;97005.69;1727467;75;24506;-68
2023/04/02 06:28:47;;;;;;;4.20;3.10;;;;;;;6.81;nan;97013.13;1727540;75;24086;-70
2023/04/02 06:31:28;;;;;;;;;;;;;;;6.94;nan;97010.16;1727219;75;24227;-71
2023/04/02 06:33:58;;;;;;;3.60;2.60;;;;;;;7.09;nan;97018.34;1726785;75;24096;-70
2023/04/02 06:36:31;;;;;;;3.20;2.20;;;;;;;7.12;nan;97011.97;1727430;75;25664;-70
2023/04/02 06:39:07;;;;;;;2.70;1.90;;;;;;;7.17;nan;97019.47;1727858;75;25026;-70
2023/04/02 06:41:36;;;;;;;3.50;2.40;;;;;;;7.30;nan;97015.72;1726931;83;25256;-68
2023/04/02 06:44:22;;;;;;;2.60;1.90;;;;;;;7.36;nan;97024.72;1727671;75;24148;-67
2023/04/02 06:46:55;;;;;;;2.90;2.20;;;;;;;7.45;nan;97024.63;1726991;83;24678;-71
2023/04/02 06:49:33;;;;;;;2.90;1.90;;;;;;;7.56;nan;97030.28;1727204;75;24280;-68
2023/04/02 06:52:03;;;;;;;;;;;;;;;7.45;nan;97035.53;1726824;75;24625;-69
2023/04/02 06:54:34;;;;;;;3.70;2.30;;;;;;;7.49;nan;97033.38;1727142;75;24212;-69
2023/04/02 06:57:03;;;;;;;2.20;1.70;;;;;;;7.64;nan;97045.00;1726829;75;25987;-70
2023/04/02 06:59:36;;;;;;;2.00;1.50;;;;;;;7.78;nan;97043.50;1727388;75;25295;-69
2023/04/02 07:02:18;;;;;;;2.30;1.70;;;;;;;7.79;nan;97036.84;1727116;75;25695;-70
2023/04/02 07:04:48;;;;;;;3.10;2.10;;;;;;;7.80;nan;97043.78;1727240;75;24907;-69
2023/04/02 07:07:17;;;;;;;3.10;2.20;;;;;;;7.91;nan;97040.47;1727310;75;24940;-68
2023/04/02 07:09:47;;;;;;;2.90;1.80;;;;;;;8.06;nan;97054.09;1727136;75;24417;-68
2023/04/02 07:12:20;;;;;;;6.00;4.80;;;;;;;8.30;nan;97053.94;1727215;75;24305;-70
2023/04/02 07:14:52;;;;;;;5.50;3.50;;;;;;;8.16;nan;97052.00;1727402;75;24065;-69
2023/04/02 07:17:22;;;;;;;4.90;3.20;;;;;;;8.19;nan;97051.78;1727480;75;24262;-69
2023/04/02 07:19:52;;;;;;;5.50;3.50;;;;;;;8.38;nan;97051.56;1727370;75;24126;-69
2023/04/02 07:22:24;;;;;;;3.40;2.70;;;;;;;8.55;nan;97043.63;1727321;75;24548;-69
2023/04/02 07:24:54;;;;;;;4.40;2.70;;;;;;;8.40;nan;97049.13;1727282;75;24508;-69
2023/04/02 07:27:23;;;;;;;7.10;5.40;;;;;;;8.68;nan;97049.47;1727308;75;24219;-68
2023/04/02 07:29:55;;;;;;;4.10;3.20;;;;;;;8.59;nan;97058.56;1727129;75;24835;-69
2023/04/02 07:32:25;;;;;;;4.40;2.70;;;;;;;8.72;nan;97069.88;1727431;75;25111;-71
2023/04/02 07:34:55;;;;;;;2.90;2.30;;;;;;;8.65;nan;97073.03;1727084;75;24739;-72
2023/04/02 07:37:25;;;;;;;1.90;1.40;;;;;;;8.89;nan;97069.34;1727351;75;24205;-71
2023/04/02 07:39:55;;;;;;;2.00;1.40;;;;;;;8.87;nan;97067.06;1727165;75;24233;-69
2023/04/02 07:42:24;;;;;;;2.00;1.60;;;;;;;9.00;nan;97068.72;1727258;75;24261;-69
2023/04/02 07:44:57;;;;;;;4.00;2.00;;;;;;;8.99;nan;97073.41;1727194;75;24229;-69
2023/04/02 07:47:26;;;;;;;2.10;1.60;;;;;;;9.23;nan;97075.91;1727386;75;24822;-72
2023/04/02 07:49:56;;;;;;;2.50;1.90;;;;;;;9.05;nan;97073.50;1727233;75;24450;-70
2023/04/02 07:52:25;;;;;;;2.20;1.60;;;;;;;9.28;nan;97072.50;1727315;75;24323;-70
2023/04/02 07:54:55;;;;;;;2.00;1.50;;;;;;;9.34;nan;97078.78;1726934;75;25476;-69
2023/04/02 07:57:25;;;;;;;2.80;1.60;;;;;;;9.27;nan;97075.72;1727203;75;25044;-67
2023/04/02 07:59:57;;;;;;;1.80;1.50;;;;;;;9.61;nan;97082.25;1727087;75;24547;-69
2023/04/02 08:02:27;;;;;;;1.40;1.10;;;;;;;9.82;nan;97078.22;1727037;75;24195;-69
2023/04/02 08:04:57;;;;;;;1.80;1.40;;;;;;;9.57;nan;97078.97;1726987;75;24186;-72
2023/04/02 08:07:28;;;;;;;3.00;1.80;;;;;;;9.62;nan;97083.78;1727388;75;24183;-70
2023/04/02 08:09:58;;;;;;;1.10;1.00;;;;;;;9.90;nan;97083.25;1727000;75;24708;-71
2023/04/02 08:12:27;;;;;;;2.40;1.20;;;;;;;9.86;nan;97079.97;1727132;75;24685;-68
2023/04/02 08:15:00;;;;;;;2.10;1.20;;;;;;;10.15;nan;97087.94;1727213;75;24478;-71
2023/04/02 08:17:30;;;;;;;2.20;1.30;;;;;;;10.22;nan;97083.97;1727317;75;24194;-72
2023/04/02 08:20:00;;;;;;;3.10;1.30;;;;;;;10.35;nan;97083.59;1727245;75;24902;-68
2023/04/02 08:22:30;;;;;;;2.30;1.40;;;;;;;10.27;nan;97077.81;1727235;75;24989;-69
2023/04/02 08:25:00;;;;;;;1.20;1.10;;;;;;;10.49;nan;97082.69;1726967;75;24073;-69
2023/04/02 08:27:29;;;;;;;2.60;1.50;;;;;;;10.48;nan;97089.41;1727267;75;24278;-68
2023/04/02 08:30:02;;;;;;;1.90;1.00;;;;;;;10.68;nan;97087.75;1726837;75;24181;-69
2023/04/02 08:32:31;;;;;;;2.00;1.20;;;;;;;10.70;nan;97086.03;1727175;75;24192;-68
2023/04/02 08:35:01;;;;;;;2.50;1.50;;;;;;;10.88;nan;97082.88;1726894;75;24651;-70
2023/04/02 08:37:31;;;;;;;2.00;1.30;;;;;;;10.94;nan;97069.19;1727386;75;24656;-71
2023/04/02 08:40:00;;;;;;;1.50;1.00;;;;;;;11.11;nan;97082.97;1727300;75;24666;-69
2023/04/02 08:42:39;;;;;;;2.30;1.40;;;;;;;10.88;nan;97091.09;1727657;75;24118;-70
2023/04/02 08:45:25;;;;;;;2.50;1.60;;;;;;;10.90;nan;97087.88;1727541;75;24675;-71
2023/04/02 08:48:01;;;;;;;2.30;1.60;;;;;;;11.20;nan;97084.75;1727572;75;24290;-70
2023/04/02 08:50:35;;;;;;;2.40;1.20;;;;;;;11.40;nan;97087.28;1727749;75;24167;-69
2023/04/02 08:53:08;;;;;;;2.20;1.50;;;;;;;11.54;nan;97088.31;1727465;75;24168;-70
2023/04/02 08:55:46;;;;;;;2.00;1.10;;;;;;;11.66;nan;97083.59;1727590;75;24524;-70
2023/04/02 08:58:36;;;;;;;2.30;1.40;;;;;;;11.44;nan;97078.81;1727374;75;24220;-69
2023/04/02 09:01:15;;;;;;;1.80;1.30;;;;;;;11.60;nan;97083.59;1727089;75;24117;-72
2023/04/02 09:03:49;;;;;;;1.70;1.20;;;;;;;11.93;nan;97093.13;1727214;75;24158;-68
2023/04/02 09:06:22;;;;;;;2.10;1.40;;;;;;;11.61;nan;97085.06;1726860;75;25417;-70
2023/04/02 09:08:53;;;;;;;1.70;1.10;;;;;;;11.83;nan;97087.09;1727389;75;24916;-69
2023/04/02 09:11:29;;;;;;;2.80;2.00;;;;;;;12.03;nan;97099.84;1726796;83;24619;-70
2023/04/02 09:14:02;;;;;;;59.10;45.00;;;;;;;12.28;nan;97108.31;1726832;75;25028;-68
2023/04/02 09:16:46;;;;;;;21.00;16.50;;;;;;;12.43;nan;97099.81;1727482;75;24163;-72
2023/04/02 09:19:23;;;;;;;8.20;5.50;;;;;;;12.53;nan;97095.53;1727248;75;25264;-69
2023/04/02 09:22:10;;;;;;;5.20;2.60;;;;;;;12.62;nan;97106.25;1727775;75;24966;-70
2023/04/02 09:24:40;;;;;;;2.70;1.80;;;;;;;12.33;nan;97102.81;1727041;75;25412;-69
2023/04/02 09:27:20;;;;;;;3.20;1.50;;;;;;;12.92;nan;97105.69;1727539;75;25016;-68
2023/04/02 09:29:54;;;;;;;2.70;1.40;;;;;;;12.50;nan;97110.28;1727143;75;25046;-70
2023/04/02 09:35:34;;;;;;;1.10;1.00;;;;;;;12.71;nan;97103.25;1727194;75;24256;-70
2023/04/02 09:38:23;;;;;;;1.40;0.90;;;;;;;12.74;nan;97113.22;1727306;75;24244;-68
2023/04/02 09:41:00;;;;;;;1.70;1.40;;;;;;;12.89;nan;97112.94;1726920;75;25061;-69
2023/04/02 09:43:31;;;;;;;3.60;2.50;;;;;;;12.65;nan;97107.25;1727107;75;24122;-70
2023/04/02 09:46:04;;;;;;;2.20;1.50;;;;;;;13.06;nan;97117.63;1727487;75;24264;-70
2023/04/02 09:48:42;;;;;;;2.10;1.20;;;;;;;12.99;nan;97111.41;1727381;75;24713;-68
2023/04/02 09:51:19;;;;;;;2.10;1.40;;;;;;;13.19;nan;97118.56;1727604;75;25038;-67
2023/04/02 09:53:50;;;;;;;3.00;1.30;;;;;;;13.25;nan;97115.78;1727225;75;24709;-70
2023/04/02 09:56:25;;;;;;;2.20;1.30;;;;;;;13.53;nan;97112.91;1727594;75;24516;-69
2023/04/02 09:59:07;;;;;;;1.30;0.90;;;;;;;13.39;nan;97116.75;1727250;75;24500;-72
2023/04/02 10:01:40;;;;;;;1.50;1.10;;;;;;;13.42;nan;97115.72;1727004;75;24450;-68
2023/04/02 10:04:38;;;;;;;1.10;0.70;;;;;;;13.70;nan;97112.81;1727209;75;24231;-69
2023/04/02 10:07:09;;;;;;;2.40;1.00;;;;;;;13.79;nan;97107.00;1727163;75;24951;-69
2023/04/02 10:09:40;;;;;;;1.20;0.80;;;;;;;14.00;nan;97114.88;1727605;75;24610;-69
2023/04/02 10:12:15;;;;;;;1.50;0.90;;;;;;;14.18;nan;97111.47;1726953;75;25109;-69
2023/04/02 10:14:49;;;;;;;0.90;0.60;;;;;;;13.86;nan;97105.72;1727022;75;24719;-71
2023/04/02 10:17:24;;;;;;;1.90;0.90;;;;;;;14.70;nan;97104.25;1727939;75;24413;-71
2023/04/02 10:20:05;;;;;;;0.50;0.50;;;;;;;15.25;nan;97102.13;1727663;75;24167;-69
2023/04/02 10:22:35;;;;;;;0.40;0.40;;;;;;;15.72;nan;97101.72;1727935;75;24217;-68
2023/04/02 10:25:14;;;;;;;0.30;0.30;;;;;;;16.15;nan;97102.84;1727386;75;24198;-69
2023/04/02 10:27:53;;;;;;;0.70;0.50;;;;;;;16.55;nan;97103.66;1727471;75;24252;-69
2023/04/02 10:30:31;;;;;;;3.20;1.90;;;;;;;17.01;nan;97103.59;1727629;75;26259;-68
2023/04/02 10:33:06;;;;;;;1.10;0.90;;;;;;;16.91;nan;97097.75;1727529;75;24072;-68
2023/04/02 10:35:53;;;;;;;0.60;0.50;;;;;;;16.40;nan;97089.59;1727644;75;24159;-69
2023/04/02 10:38:40;;;;;;;0.90;0.30;;;;;;;17.41;nan;97086.91;1727453;75;24473;-67
2023/04/02 10:41:20;;;;;;;;;;;;;;;17.69;nan;97086.31;1727124;75;25005;-70
2023/04/02 10:44:18;;;;;;;0.40;0.40;;;;;;;18.20;nan;97085.88;1727380;83;24296;-71
2023/04/02 10:47:01;;;;;;;1.40;0.40;;;;;;;18.26;nan;97096.84;1727196;75;24229;-67
2023/04/02 10:49:42;;;;;;;0.40;0.30;;;;;;;18.63;nan;97092.09;1727285;75;24085;-67
2023/04/02 10:52:21;;;;;;;0.70;0.40;;;;;;;18.60;nan;97093.19;1727493;75;24286;-67
2023/04/02 10:54:53;;;;;;;0.60;0.40;;;;;;;18.45;nan;97094.56;1727205;75;26132;-69
2023/04/02 10:57:35;;;;;;;0.20;0.20;;;;;;;18.98;nan;97090.69;1727548;75;25018;-68
2023/04/02 11:00:18;;;;;;;0.80;0.20;;;;;;;19.17;nan;97084.84;1727374;75;24731;-69
2023/04/02 11:02:56;;;;;;;0.20;0.20;;;;;;;19.15;nan;97093.72;1726823;75;24154;-69
2023/04/02 11:05:35;;;;;;;2.20;0.60;;;;;;;19.20;nan;97086.53;1727375;75;24418;-69
2023/04/02 11:08:18;;;;;;;1.20;0.60;;;;;;;19.25;nan;97091.16;1727125;75;28217;-68
2023/04/02 11:10:52;;;;;;;0.50;0.30;;;;;;;17.67;nan;97084.06;1727455;75;24355;-69
2023/04/02 11:13:28;;;;;;;0.60;0.40;;;;;;;18.91;nan;97081.03;1727438;75;24359;-68
2023/04/02 11:15:58;;;;;;;1.90;0.90;;;;;;;18.97;nan;97078.09;1727128;75;24147;-68
2023/04/02 11:18:34;;;;;;;1.30;0.80;;;;;;;18.43;nan;97083.28;1727661;75;24204;-71
2023/04/02 11:21:08;;;;;;;0.40;0.30;;;;;;;18.44;nan;97087.53;1727193;75;26737;-67
2023/04/02 11:23:58;;;;;;;0.60;0.40;;;;;;;18.26;nan;97097.56;1727145;75;25007;-68
2023/04/02 11:26:46;;;;;;;5.30;3.80;;;;;;;18.10;nan;97091.16;1727148;75;25859;-69
2023/04/02 11:29:24;;;;;;;0.90;0.80;;;;;;;17.64;nan;97087.91;1727369;75;24158;-70
2023/04/02 11:32:42;;;;;;;0.60;0.40;;;;;;;17.49;nan;97081.50;1727390;75;24961;-69
2023/04/02 11:35:39;;;;;;;0.50;0.40;;;;;;;17.18;nan;97090.16;1727260;75;25614;-69
2023/04/02 11:38:52;;;;;;;0.40;0.30;;;;;;;17.31;nan;97083.13;1727150;75;24407;-68
2023/04/02 11:42:02;;;;;;;0.20;0.20;;;;;;;17.04;nan;97088.69;1726095;75;25468;-70
2023/04/02 11:44:31;;;;;;;0.80;0.50;;;;;;;16.81;nan;97088.38;1726656;83;24508;-68
2023/04/02 11:47:20;;;;;;;0.70;0.30;;;;;;;16.80;nan;97086.91;1727535;75;24312;-71
2023/04/02 11:50:04;;;;;;;0.40;0.30;;;;;;;16.63;nan;97089.97;1727045;75;24520;-68
2023/04/02 11:52:58;;;;;;;0.50;0.40;;;;;;;16.44;nan;97081.75;1727187;75;24252;-69
2023/04/02 11:55:31;;;;;;;0.50;0.30;;;;;;;16.25;nan;97094.91;1727091;75;24231;-68
2023/04/02 11:58:40;;;;;;;0.30;0.30;;;;;;;16.24;nan;97087.91;1727719;75;24128;-71
2023/04/02 12:01:31;;;;;;;;;;;;;;;16.31;nan;97085.25;1727287;75;25175;-71
2023/04/02 12:04:48;;;;;;;0.40;0.30;;;;;;;16.58;nan;97082.53;1726922;75;24246;-70
2023/04/02 12:07:51;;;;;;;0.40;0.40;;;;;;;16.75;nan;97080.19;1727249;75;24563;-69
2023/04/02 12:10:23;;;;;;;0.30;0.30;;;;;;;16.94;nan;97079.34;1727359;75;24221;-70
2023/04/02 12:12:53;;;;;;;0.30;0.30;;;;;;;16.93;nan;97081.38;1727326;75;24122;-73
2023/04/02 12:15:45;;;;;;;0.30;0.20;;;;;;;17.09;nan;97079.53;1726879;75;27426;-71
2023/04/02 12:18:19;;;;;;;0.20;0.20;;;;;;;16.30;nan;97078.22;1727242;75;24356;-68
2023/04/02 12:20:56;;;;;;;0.30;0.30;;;;;;;16.65;nan;97079.13;1727336;75;25389;-69
2023/04/02 12:23:30;;;;;;;0.90;0.40;;;;;;;16.13;nan;97086.06;1727199;75;24274;-69
2023/04/02 12:26:05;;;;;;;0.40;0.40;;;;;;;16.09;nan;97080.84;1727338;75;24424;-72
2023/04/02 12:28:36;;;;;;;0.40;0.30;;;;;;;16.38;nan;97072.84;1727189;75;24383;-70
2023/04/02 12:31:16;;;;;;;0.70;0.50;;;;;;;16.19;nan;97090.22;1727636;75;24203;-70
2023/04/02 12:33:46;;;;;;;0.80;0.40;;;;;;;15.93;nan;97085.38;1727079;75;24972;-74
2023/04/02 12:36:25;;;;;;;3.40;2.70;;;;;;;15.67;nan;97091.50;1727255;75;24404;-73
2023/04/02 12:38:57;;;;;;;5.00;3.10;;;;;;;15.65;nan;97094.03;1727401;75;24952;-72
2023/04/02 12:41:31;;;;;;;2.10;1.20;;;;;;;15.52;nan;97088.47;1727340;75;24498;-69
2023/04/02 12:44:02;;;;;;;0.80;0.50;;;;;;;15.75;nan;97083.38;1726752;75;24193;-73
2023/04/02 12:46:34;;;;;;;1.10;0.70;;;;;;;15.93;nan;97090.88;1726728;75;24276;-68